Time;durP1;ratioP1;P1;durP2;ratioP2;P2;SDS_P1;SDS_P2;PMS_P1;PMS_P2;Temp;Humidity;BMP_temperature;BMP_pressure;BME280_temperature;BME280_humidity;BME280_pressure;Samples;Min_cycle;Max_cycle;Signal;HPM_P1;HPM_P2
2024/02/03 00:01:39;;;;;;;;;;;;;;;7.98;65.88;99014.13;5051672;28;19925;-88
2024/02/03 00:04:30;;;;;;;;;;;;;;;7.97;66.22;99015.19;5042187;28;19932;-89
2024/02/03 00:07:19;;;;;;;;;;;;;;;8.06;66.04;99012.78;5049595;28;20279;-90
2024/02/03 00:10:08;;;;;;;;;;;;;;;8.09;66.07;99009.53;5053670;28;20303;-90
2024/02/03 00:12:57;;;;;;;;;;;;;;;8.02;66.14;99012.50;5067172;28;20413;-89
2024/02/03 00:15:46;;;;;;;;;;;;;;;7.96;66.35;99001.94;5068079;28;19929;-88
2024/02/03 00:18:35;;;;;;;;;;;;;;;7.96;66.58;99000.06;5069382;28;19925;-89
2024/02/03 00:21:23;;;;;;;;;;;;;;;7.97;66.85;99000.84;5074757;28;20006;-89
2024/02/03 00:24:11;;;;;;;;;;;;;;;8.00;66.85;99005.75;5086798;28;19978;-90
2024/02/03 00:27:00;;;;;;;;;;;;;;;7.97;67.19;98990.03;5057681;28;19931;-89
2024/02/03 00:29:49;;;;;;;;;;;;;;;7.95;67.11;98994.91;5069853;28;19928;-89
2024/02/03 00:32:37;;;;;;;;;;;;;;;7.98;67.42;98995.16;5066434;28;19925;-89
2024/02/03 00:35:25;;;;;;;;;;;;;;;8.00;67.22;98984.91;5052583;28;19925;-87
2024/02/03 00:38:14;;;;;;;;;;;;;;;7.93;67.46;99000.56;5075272;28;19936;-89
2024/02/03 00:41:02;;;;;;;;;;;;;;;7.93;67.43;98997.88;5072264;28;19931;-88
2024/02/03 00:43:51;;;;;;;;;;;;;;;8.01;67.19;98999.25;5080619;28;19924;-88
2024/02/03 00:46:40;;;;;;;;;;;;;;;8.04;67.25;98990.59;5064409;28;19925;-89
2024/02/03 00:49:29;;;;;;;;;;;;;;;7.98;67.44;99006.00;5085649;28;19967;-89
2024/02/03 00:52:20;;;;;;;;;;;;;;;7.94;67.83;98998.72;5071575;28;20418;-88
2024/02/03 00:55:08;;;;;;;;;;;;;;;7.90;68.13;98995.72;5048593;28;19932;-88
2024/02/03 00:57:57;;;;;;;;;;;;;;;7.90;68.32;98989.50;5057549;28;20615;-89
2024/02/03 01:00:45;;;;;;;;;;;;;;;7.86;68.50;98983.78;5072236;28;19928;-89
2024/02/03 01:03:35;;;;;;;;;;;;;;;7.84;68.60;98992.19;5056820;28;19951;-89
2024/02/03 01:06:23;;;;;;;;;;;;;;;7.86;68.64;98984.59;5063212;28;19937;-89
2024/02/03 01:09:11;;;;;;;;;;;;;;;7.88;68.71;98987.88;5060887;28;20011;-88
2024/02/03 01:12:00;;;;;;;;;;;;;;;7.83;69.04;98987.03;5063254;28;19932;-89
2024/02/03 01:14:48;;;;;;;;;;;;;;;7.81;69.13;98989.19;5071040;28;19929;-90
2024/02/03 01:17:36;;;;;;;;;;;;;;;7.79;69.05;98989.47;5064195;28;19924;-88
2024/02/03 01:20:26;;;;;;;;;;;;;;;7.83;69.32;98989.75;5072577;28;20352;-88
2024/02/03 01:23:14;;;;;;;;;;;;;;;7.81;69.32;98994.59;5064988;28;20614;-89
2024/02/03 01:26:05;;;;;;;;;;;;;;;7.85;69.30;98987.59;5070539;28;19925;-89
2024/02/03 01:28:53;;;;;;;;;;;;;;;7.83;69.46;98998.69;5076187;28;20319;-89
2024/02/03 01:31:41;;;;;;;;;;;;;;;7.82;69.50;98994.31;5071052;28;19931;-88
2024/02/03 01:34:29;;;;;;;;;;;;;;;7.84;69.64;98992.19;5061248;28;19932;-88
2024/02/03 01:37:19;;;;;;;;;;;;;;;7.82;69.75;98994.31;5068273;28;19933;-88
2024/02/03 01:40:08;;;;;;;;;;;;;;;7.82;69.80;98983.50;5054138;28;20280;-88
2024/02/03 01:42:58;;;;;;;;;;;;;;;7.81;70.12;98991.91;5073464;28;19940;-88
2024/02/03 01:45:46;;;;;;;;;;;;;;;7.78;69.98;98998.66;5069730;28;20030;-89
2024/02/03 01:48:34;;;;;;;;;;;;;;;7.79;70.32;98989.47;5076525;28;20284;-89
2024/02/03 01:51:23;;;;;;;;;;;;;;;7.82;70.05;98988.09;5075841;28;20009;-88
2024/02/03 01:54:12;;;;;;;;;;;;;;;7.85;70.01;99004.63;5070273;28;20001;-88
2024/02/03 01:57:01;;;;;;;;;;;;;;;7.94;70.16;99014.94;5059120;28;19935;-88
2024/02/03 01:59:49;;;;;;;;;;;;;;;7.91;69.96;99013.56;5058313;28;19929;-88
2024/02/03 02:02:37;;;;;;;;;;;;;;;7.87;70.17;99015.16;5054805;28;19931;-89
2024/02/03 02:05:25;;;;;;;;;;;;;;;7.90;70.18;99016.53;5052768;28;20011;-88
2024/02/03 02:08:14;;;;;;;;;;;;;;;7.93;70.12;99005.16;5051404;28;20000;-88
2024/02/03 02:11:04;;;;;;;;;;;;;;;7.83;70.62;99014.91;5066320;28;20305;-88
2024/02/03 02:13:52;;;;;;;;;;;;;;;7.90;70.44;99013.84;5065891;28;19924;-87
2024/02/03 02:16:40;;;;;;;;;;;;;;;7.82;70.46;99010.56;5063774;28;19932;-87
2024/02/03 02:19:28;;;;;;;;;;;;;;;7.84;70.73;99013.81;5070909;28;19924;-87
2024/02/03 02:22:18;;;;;;;;;;;;;;;7.82;70.93;99010.56;5053500;28;19928;-86
2024/02/03 02:25:06;;;;;;;;;;;;;;;7.73;71.36;99004.06;5070136;28;19932;-88
2024/02/03 02:27:55;;;;;;;;;;;;;;;7.84;71.07;99003.00;5056645;28;19932;-93
2024/02/03 02:30:43;;;;;;;;;;;;;;;7.88;70.88;98996.00;5058665;28;19925;-93
2024/02/03 02:33:31;;;;;;;;;;;;;;;7.87;70.67;98991.63;5060291;28;20028;-93
2024/02/03 02:36:20;;;;;;;;;;;;;;;7.85;70.80;98996.50;5071277;28;19909;-93
2024/02/03 02:39:10;;;;;;;;;;;;;;;7.80;71.14;98988.38;5070786;28;21656;-93
2024/02/03 02:41:58;;;;;;;;;;;;;;;7.83;70.87;98985.16;5075204;28;19937;-93
2024/02/03 02:44:47;;;;;;;;;;;;;;;7.83;71.07;98990.56;5057252;28;20283;-95
2024/02/03 02:47:35;;;;;;;;;;;;;;;7.75;71.34;98982.94;5057616;28;19928;-93
2024/02/03 02:50:24;;;;;;;;;;;;;;;7.78;71.33;98977.03;5053789;28;19931;-93
2024/02/03 02:53:12;;;;;;;;;;;;;;;7.74;71.37;98965.09;5044606;28;19939;-93
2024/02/03 02:56:02;;;;;;;;;;;;;;;7.75;71.48;98960.50;5051876;28;19924;-94
2024/02/03 02:58:50;;;;;;;;;;;;;;;7.74;71.31;98965.09;5048732;28;19925;-94
2024/02/03 03:01:38;;;;;;;;;;;;;;;7.75;71.44;98958.59;5065292;28;19925;-94
2024/02/03 03:04:27;;;;;;;;;;;;;;;7.67;71.65;98961.00;5054156;28;20395;-93
2024/02/03 03:07:16;;;;;;;;;;;;;;;7.68;71.93;98968.06;5056573;28;20007;-92
2024/02/03 03:10:05;;;;;;;;;;;;;;;7.72;71.51;98977.25;5042257;28;20904;-92
2024/02/03 03:12:55;;;;;;;;;;;;;;;7.76;71.58;98973.75;5052900;28;19924;-93
2024/02/03 03:15:43;;;;;;;;;;;;;;;7.76;71.36;98979.16;5057023;28;19925;-93
2024/02/03 03:18:32;;;;;;;;;;;;;;;7.76;71.56;98976.47;5060919;28;20010;-93
2024/02/03 03:21:21;;;;;;;;;;;;;;;7.74;71.70;98977.81;5052112;28;20070;-92
2024/02/03 03:24:09;;;;;;;;;;;;;;;7.72;71.83;98988.88;5055773;28;19932;-93
2024/02/03 03:27:01;;;;;;;;;;;;;;;7.65;71.86;98988.31;5054594;28;20073;-92
2024/02/03 03:29:52;;;;;;;;;;;;;;;7.69;71.97;98980.50;5054134;28;20247;-93
2024/02/03 03:32:41;;;;;;;;;;;;;;;7.71;71.91;98981.03;5051283;28;19925;-92
2024/02/03 03:35:30;;;;;;;;;;;;;;;7.72;71.99;98979.97;5069577;28;19924;-94
2024/02/03 03:38:18;;;;;;;;;;;;;;;7.70;71.79;98985.63;5058674;28;19928;-86
2024/02/03 03:41:10;;;;;;;;;;;;;;;7.69;72.18;98989.44;5064597;28;19924;-87
2024/02/03 03:43:58;;;;;;;;;;;;;;;7.71;71.90;98995.38;5062353;28;20054;-88
2024/02/03 03:46:47;;;;;;;;;;;;;;;7.70;71.89;98996.47;5064927;28;20299;-89
2024/02/03 03:49:36;;;;;;;;;;;;;;;7.69;71.80;98994.84;5060981;28;20024;-88
2024/02/03 03:52:27;;;;;;;;;;;;;;;7.66;72.14;99000.75;5062966;28;20563;-87
2024/02/03 03:55:17;;;;;;;;;;;;;;;7.70;71.96;99004.56;5071088;28;19931;-88
2024/02/03 03:58:06;;;;;;;;;;;;;;;7.70;71.98;99001.06;5071481;28;19931;-84
2024/02/03 04:00:54;;;;;;;;;;;;;;;7.66;72.64;98999.97;5066991;28;19925;-88
2024/02/03 04:03:47;;;;;;;;;;;;;;;7.66;72.55;98997.25;5064601;28;19935;-88
2024/02/03 04:06:35;;;;;;;;;;;;;;;7.65;72.58;98993.75;5048069;28;19929;-88
2024/02/03 04:09:24;;;;;;;;;;;;;;;7.65;72.88;99004.56;5079069;28;19970;-88
2024/02/03 04:12:12;;;;;;;;;;;;;;;7.69;72.80;99005.66;5066441;28;19925;-88
2024/02/03 04:15:01;;;;;;;;;;;;;;;7.70;72.74;99001.88;5059627;28;20412;-88
2024/02/03 04:17:50;;;;;;;;;;;;;;;7.73;72.84;99001.34;5068798;28;19998;-89
2024/02/03 04:20:39;;;;;;;;;;;;;;;7.71;72.80;99002.69;5057427;28;19925;-88
2024/02/03 04:23:27;;;;;;;;;;;;;;;7.65;73.02;99012.66;5066857;28;19974;-83
2024/02/03 04:26:18;;;;;;;;;;;;;;;7.60;73.35;99002.66;5065349;28;19928;-89
2024/02/03 04:29:06;;;;;;;;;;;;;;;7.66;73.27;99016.19;5070642;28;19931;-87
2024/02/03 04:31:55;;;;;;;;;;;;;;;7.67;73.29;99017.81;5054759;28;19925;-88
2024/02/03 04:34:43;;;;;;;;;;;;;;;7.64;72.88;99008.34;5059187;28;20074;-87
2024/02/03 04:37:32;;;;;;;;;;;;;;;7.63;72.96;99011.31;5070960;28;19925;-87
2024/02/03 04:40:22;;;;;;;;;;;;;;;7.65;73.02;99006.44;5066698;28;19932;-87
2024/02/03 04:43:10;;;;;;;;;;;;;;;7.64;72.93;99008.34;5069924;28;19975;-88
2024/02/03 04:46:00;;;;;;;;;;;;;;;7.61;73.62;99011.56;5071762;28;20070;-87
2024/02/03 04:48:50;;;;;;;;;;;;;;;7.65;73.87;99009.97;5059945;28;19977;-87
2024/02/03 04:51:39;;;;;;;;;;;;;;;7.67;73.78;99002.41;5056067;28;19932;-87
2024/02/03 04:54:29;;;;;;;;;;;;;;;7.65;73.93;98999.16;5053206;28;20014;-90
2024/02/03 04:57:17;;;;;;;;;;;;;;;7.64;74.21;99007.53;5066625;28;19928;-90
2024/02/03 05:00:06;;;;;;;;;;;;;;;7.61;74.18;99001.56;5064191;28;19924;-92
2024/02/03 05:02:54;;;;;;;;;;;;;;;7.58;74.13;98998.59;5066657;28;19925;-90
2024/02/03 05:05:43;;;;;;;;;;;;;;;7.65;74.17;98985.63;5050583;28;19930;-90
2024/02/03 05:08:31;;;;;;;;;;;;;;;7.73;73.56;98989.72;5058626;28;19925;-90
2024/02/03 05:11:21;;;;;;;;;;;;;;;7.73;73.94;98990.53;5052348;28;20067;-92
2024/02/03 05:14:09;;;;;;;;;;;;;;;7.81;73.48;98992.69;5053684;28;19924;-92
2024/02/03 05:16:59;;;;;;;;;;;;;;;7.90;73.59;98995.72;5050429;28;20022;-91
2024/02/03 05:19:47;;;;;;;;;;;;;;;8.09;72.98;98993.28;5046213;28;19932;-91
2024/02/03 05:22:35;;;;;;;;;;;;;;;8.09;72.87;98993.28;5043417;28;20299;-93
2024/02/03 05:25:24;;;;;;;;;;;;;;;8.12;72.90;98996.28;5063188;28;20499;-91
2024/02/03 05:28:13;;;;;;;;;;;;;;;8.01;72.80;98999.25;5053478;28;19928;-92
2024/02/03 05:31:03;;;;;;;;;;;;;;;8.01;72.54;98999.25;5065756;28;19973;-91
2024/02/03 05:33:51;;;;;;;;;;;;;;;8.09;71.93;99004.94;5051558;28;19932;-92
2024/02/03 05:36:40;;;;;;;;;;;;;;;8.04;71.39;99006.81;5066411;28;19930;-91
2024/02/03 05:39:29;;;;;;;;;;;;;;;8.00;71.50;99006.56;5054568;28;19956;-91
2024/02/03 05:42:17;;;;;;;;;;;;;;;8.10;71.44;99016.59;5056996;28;19932;-90
2024/02/03 05:45:11;;;;;;;;;;;;;;;8.06;71.18;99016.31;5053731;28;20322;-89
2024/02/03 05:47:59;;;;;;;;;;;;;;;8.14;70.85;99017.66;5055797;28;19932;-91
2024/02/03 05:50:47;;;;;;;;;;;;;;;8.13;70.81;99024.16;5048851;28;20312;-91
2024/02/03 05:53:36;;;;;;;;;;;;;;;8.10;70.88;99024.72;5050042;28;19925;-90
2024/02/03 05:56:26;;;;;;;;;;;;;;;8.12;70.81;99027.97;5055637;28;19932;-91
2024/02/03 05:59:15;;;;;;;;;;;;;;;8.10;70.98;99019.31;5050662;28;20019;-82
2024/02/03 06:02:16;;;;;;;;;;;;;;;7.96;71.45;99027.09;5070210;28;19946;-86
2024/02/03 06:05:04;;;;;;;;;;;;;;;8.04;71.35;99025.75;5073043;28;19925;-88
2024/02/03 06:07:53;;;;;;;;;;;;;;;7.93;71.78;99033.03;5062888;28;19924;-88
2024/02/03 06:10:41;;;;;;;;;;;;;;;8.03;71.82;99030.38;5061552;28;19939;-84
2024/02/03 06:13:29;;;;;;;;;;;;;;;7.91;72.56;99029.81;5054025;28;19932;-78
2024/02/03 06:16:17;;;;;;;;;;;;;;;7.97;72.68;99030.63;5055847;28;19928;-88
2024/02/03 06:19:07;;;;;;;;;;;;;;;7.98;72.82;99026.84;5053714;28;20017;-84
2024/02/03 06:21:59;;;;;;;;;;;;;;;7.88;73.56;99030.31;5067627;28;20017;-86
2024/02/03 06:24:48;;;;;;;;;;;;;;;7.93;73.70;99029.53;5070456;28;19928;-87
2024/02/03 06:27:36;;;;;;;;;;;;;;;8.06;73.35;99035.25;5052276;28;19964;-84
2024/02/03 06:30:26;;;;;;;;;;;;;;;8.15;72.75;99024.72;5054799;28;19970;-84
2024/02/03 06:33:15;;;;;;;;;;;;;;;8.16;73.26;99026.34;5059211;28;19931;-87
2024/02/03 06:36:05;;;;;;;;;;;;;;;8.06;73.62;99032.56;5068181;28;20389;-88
2024/02/03 06:38:53;;;;;;;;;;;;;;;8.09;73.43;99036.59;5046673;28;20585;-87
2024/02/03 06:41:41;;;;;;;;;;;;;;;8.14;73.82;99028.50;5054189;28;19924;-88
2024/02/03 06:44:29;;;;;;;;;;;;;;;8.05;74.19;99036.34;5066842;28;20273;-86
2024/02/03 06:47:17;;;;;;;;;;;;;;;8.11;74.26;99040.69;5073557;28;19931;-87
2024/02/03 06:50:06;;;;;;;;;;;;;;;8.04;74.31;99055.53;5057845;28;20015;-87
2024/02/03 06:52:56;;;;;;;;;;;;;;;7.91;74.99;99048.75;5067328;28;19985;-86
2024/02/03 06:55:44;;;;;;;;;;;;;;;7.82;75.71;99044.91;5071342;28;19924;-87
2024/02/03 06:58:32;;;;;;;;;;;;;;;8.06;75.15;99050.69;5051441;28;19937;-85
2024/02/03 07:01:20;;;;;;;;;;;;;;;8.00;74.87;99043.63;5069628;28;19924;-87
2024/02/03 07:04:08;;;;;;;;;;;;;;;7.83;76.09;99044.66;5071722;28;19924;-90
2024/02/03 07:06:56;;;;;;;;;;;;;;;7.93;75.70;99046.56;5071651;28;19924;-89
2024/02/03 07:09:46;;;;;;;;;;;;;;;7.98;75.30;99041.19;5056303;28;19932;-85
2024/02/03 07:12:34;;;;;;;;;;;;;;;7.77;76.29;99044.91;5074834;28;19924;-88
2024/02/03 07:15:23;;;;;;;;;;;;;;;7.87;75.83;99045.75;5076834;28;19951;-87
2024/02/03 07:18:14;;;;;;;;;;;;;;;7.69;77.22;99043.53;5062626;28;19925;-87
2024/02/03 07:21:02;;;;;;;;;;;;;;;7.81;76.68;99046.81;5058473;28;19935;-93
2024/02/03 07:23:50;;;;;;;;;;;;;;;7.85;76.50;99045.22;5051593;28;19924;-88
2024/02/03 07:26:40;;;;;;;;;;;;;;;7.83;76.57;99041.16;5074672;28;20026;-87
2024/02/03 07:29:28;;;;;;;;;;;;;;;7.80;76.99;99050.59;5058538;28;19987;-89
2024/02/03 07:32:16;;;;;;;;;;;;;;;7.84;76.31;99046.28;5079013;28;19932;-90
2024/02/03 07:35:06;;;;;;;;;;;;;;;7.75;76.33;99036.25;5057362;28;19924;-90
2024/02/03 07:37:55;;;;;;;;;;;;;;;7.89;76.36;99040.09;5050529;28;20022;-89
2024/02/03 07:40:43;;;;;;;;;;;;;;;7.82;76.94;99040.31;5046880;28;19929;-91
2024/02/03 07:43:33;;;;;;;;;;;;;;;7.75;77.38;99045.16;5056329;28;20037;-86
2024/02/03 07:46:21;;;;;;;;;;;;;;;7.69;77.79;99043.53;5056958;28;19931;-88
2024/02/03 07:49:12;;;;;;;;;;;;;;;7.68;77.52;99049.22;5073097;28;19928;-87
2024/02/03 07:52:00;;;;;;;;;;;;;;;7.69;78.11;99046.22;5058576;28;19932;-86
2024/02/03 07:54:49;;;;;;;;;;;;;;;7.66;78.70;99045.94;5071699;28;19940;-84
2024/02/03 07:57:38;;;;;;;;;;;;;;;7.76;78.00;99045.97;5069313;28;19924;-79
2024/02/03 08:00:27;;;;;;;;;;;;;;;7.66;78.62;99044.03;5070947;28;19925;-78
2024/02/03 08:03:15;;;;;;;;;;;;;;;7.60;78.72;99045.09;5056783;28;19968;-78
2024/02/03 08:06:04;;;;;;;;;;;;;;;7.42;79.84;99042.88;5055770;28;19928;-79
2024/02/03 08:08:52;;;;;;;;;;;;;;;7.41;79.83;99035.84;5067133;28;19933;-82
2024/02/03 08:11:40;;;;;;;;;;;;;;;7.51;79.49;99036.69;5065724;28;19935;-77
2024/02/03 08:14:28;;;;;;;;;;;;;;;7.43;78.27;99033.69;5068503;28;19925;-83
2024/02/03 08:17:17;;;;;;;;;;;;;;;7.51;78.29;99027.75;5068031;28;19970;-88
2024/02/03 08:20:06;;;;;;;;;;;;;;;7.50;77.92;99036.94;5070296;28;19924;-88
2024/02/03 08:22:57;;;;;;;;;;;;;;;7.65;76.63;99026.19;5074714;28;19986;-88
2024/02/03 08:25:45;;;;;;;;;;;;;;;7.65;76.53;99031.59;5083981;28;19925;-89
2024/02/03 08:28:34;;;;;;;;;;;;;;;7.55;76.07;99026.97;5072464;28;19947;-81
2024/02/03 08:31:23;;;;;;;;;;;;;;;7.71;76.11;99041.34;5059011;28;19924;-93
2024/02/03 08:34:16;;;;;;;;;;;;;;;7.73;76.21;99044.63;5054465;28;19940;-90
2024/02/03 08:37:04;;;;;;;;;;;;;;;7.68;76.03;99047.31;5066392;28;19959;-90
2024/02/03 08:39:53;;;;;;;;;;;;;;;7.76;75.06;99045.97;5071356;28;19989;-90
2024/02/03 08:42:41;;;;;;;;;;;;;;;7.54;75.65;99040.75;5061318;28;20317;-90
2024/02/03 08:45:29;;;;;;;;;;;;;;;7.57;75.82;99043.75;5071134;28;19925;-90
2024/02/03 08:48:17;;;;;;;;;;;;;;;7.49;75.88;99043.44;5083274;28;19932;-90
2024/02/03 08:51:07;;;;;;;;;;;;;;;7.51;75.21;99041.28;5070690;28;19956;-90
2024/02/03 08:53:55;;;;;;;;;;;;;;;7.51;75.77;99041.28;5074610;28;20122;-90
2024/02/03 08:56:44;;;;;;;;;;;;;;;7.60;75.22;99037.81;5085568;28;19928;-91
2024/02/03 08:59:32;;;;;;;;;;;;;;;7.45;75.19;99047.72;5087294;28;19968;-89
2024/02/03 09:02:20;;;;;;;;;;;;;;;7.44;75.77;99052.34;5060577;28;19932;-90
2024/02/03 09:05:09;;;;;;;;;;;;;;;7.45;75.91;99048.53;5071094;28;19955;-89
2024/02/03 09:07:58;;;;;;;;;;;;;;;7.60;75.45;99051.31;5080131;28;20307;-89
2024/02/03 09:10:47;;;;;;;;;;;;;;;7.68;75.38;99052.72;5061316;28;19931;-90
2024/02/03 09:13:34;;;;;;;;;;;;;;;7.50;76.22;99062.09;5079778;28;19925;-90
2024/02/03 09:16:23;;;;;;;;;;;;;;;7.69;75.68;99064.34;5080051;28;19931;-90
2024/02/03 09:19:11;;;;;;;;;;;;;;;7.58;76.14;99056.19;5050543;28;19928;-91
2024/02/03 09:21:59;;;;;;;;;;;;;;;7.62;76.38;99070.00;5048138;28;20007;-91
2024/02/03 09:24:49;;;;;;;;;;;;;;;7.60;76.38;99051.31;5060593;28;19987;-89
2024/02/03 09:27:37;;;;;;;;;;;;;;;7.76;76.38;99060.31;5058991;28;19940;-81
2024/02/03 09:30:26;;;;;;;;;;;;;;;7.86;76.10;99068.47;5084068;28;19952;-84
2024/02/03 09:33:16;;;;;;;;;;;;;;;7.85;76.67;99068.75;5078067;28;19931;-84
2024/02/03 09:36:05;;;;;;;;;;;;;;;7.80;76.58;99066.84;5080307;28;19924;-83
2024/02/03 09:38:53;;;;;;;;;;;;;;;7.63;78.26;99068.94;5081371;28;19939;-84
2024/02/03 09:41:42;;;;;;;;;;;;;;;7.64;78.44;99062.44;5085608;28;19931;-83
2024/02/03 09:44:30;;;;;;;;;;;;;;;7.72;78.17;99070.03;5080892;28;19924;-81
2024/02/03 09:47:18;;;;;;;;;;;;;;;7.65;78.92;99064.06;5077553;28;19931;-83
2024/02/03 09:50:08;;;;;;;;;;;;;;;7.64;78.93;99067.03;5074888;28;19931;-88
2024/02/03 09:52:57;;;;;;;;;;;;;;;7.69;77.90;99070.56;5064432;28;19933;-89
2024/02/03 09:55:46;;;;;;;;;;;;;;;7.76;77.04;99065.72;5079289;28;19984;-89
2024/02/03 09:58:35;;;;;;;;;;;;;;;7.75;76.62;99064.09;5054202;28;19972;-92
2024/02/03 10:01:24;;;;;;;;;;;;;;;7.82;76.13;99064.66;5054638;28;20141;-89
2024/02/03 10:04:12;;;;;;;;;;;;;;;7.92;75.24;99063.09;5062681;28;19970;-90
2024/02/03 10:07:01;;;;;;;;;;;;;;;7.87;74.69;99056.56;5062708;28;19932;-79
2024/02/03 10:09:51;;;;;;;;;;;;;;;8.04;73.64;99059.06;5062952;28;19990;-85
2024/02/03 10:12:42;;;;;;;;;;;;;;;8.08;74.12;99057.44;5049701;28;19932;-83
2024/02/03 10:15:32;;;;;;;;;;;;;;;8.29;72.92;99058.31;5070266;28;20350;-91
2024/02/03 10:18:20;;;;;;;;;;;;;;;8.38;71.84;99045.09;5071975;28;19952;-91
2024/02/03 10:21:08;;;;;;;;;;;;;;;8.37;72.08;99051.59;5071538;28;19928;-79
2024/02/03 10:23:56;;;;;;;;;;;;;;;8.29;71.83;99050.19;5058427;28;19924;-78
2024/02/03 10:26:44;;;;;;;;;;;;;;;8.51;71.98;99054.56;5073315;28;19990;-82
2024/02/03 10:29:33;;;;;;;;;;;;;;;8.52;71.03;99053.47;5068790;28;20233;-78
2024/02/03 10:32:23;;;;;;;;;;;;;;;8.50;71.27;99047.53;5057232;28;19924;-83
2024/02/03 10:35:11;;;;;;;;;;;;;;;8.59;70.61;99051.34;5058534;28;19932;-82
2024/02/03 10:37:59;;;;;;;;;;;;;;;8.57;70.90;99048.88;5049949;28;19924;-81
2024/02/03 10:40:48;;;;;;;;;;;;;;;8.59;70.35;99051.34;5047277;28;19929;-84
2024/02/03 10:43:36;;;;;;;;;;;;;;;8.48;70.29;99049.72;5069274;28;19924;-82
2024/02/03 10:46:24;;;;;;;;;;;;;;;8.54;70.69;99041.31;5078283;28;20409;-86
2024/02/03 10:49:15;;;;;;;;;;;;;;;8.58;70.68;99042.41;5050986;28;19947;-83
2024/02/03 10:52:07;;;;;;;;;;;;;;;8.57;69.94;99039.94;5058714;28;19924;-77
2024/02/03 10:54:55;;;;;;;;;;;;;;;8.63;69.61;99036.19;5048967;28;19925;-81
2024/02/03 10:57:44;;;;;;;;;;;;;;;8.65;69.26;99031.28;5051142;28;19924;-81
2024/02/03 11:00:32;;;;;;;;;;;;;;;8.55;69.34;99031.28;5061890;28;19925;-79
2024/02/03 11:03:21;;;;;;;;;;;;;;;8.54;69.08;99032.38;5050703;28;19967;-77
2024/02/03 11:06:11;;;;;;;;;;;;;;;8.58;69.14;99033.47;5048134;28;19975;-77
2024/02/03 11:09:12;;;;;;;;;;;;;;;8.58;68.74;99028.88;5057546;28;19925;-81
2024/02/03 11:12:01;;;;;;;;;;;;;;;8.53;68.86;99033.47;5041615;28;19938;-81
2024/02/03 11:14:49;;;;;;;;;;;;;;;8.50;69.37;99047.53;5057498;28;19924;-79
2024/02/03 11:17:37;;;;;;;;;;;;;;;8.40;69.63;99027.47;5054807;28;19925;-80
2024/02/03 11:20:25;;;;;;;;;;;;;;;8.50;69.79;99031.28;5072736;28;20018;-83
2024/02/03 11:23:15;;;;;;;;;;;;;;;8.49;69.38;99032.38;5079232;28;19924;-79
2024/02/03 11:26:03;;;;;;;;;;;;;;;8.50;69.55;99034.81;5065693;28;20007;-89
2024/02/03 11:28:51;;;;;;;;;;;;;;;8.59;69.09;99024.25;5070722;28;19924;-79
2024/02/03 11:31:39;;;;;;;;;;;;;;;8.62;69.01;99026.41;5052249;28;19932;-81
2024/02/03 11:34:28;;;;;;;;;;;;;;;8.77;68.16;99031.81;5050596;28;19928;-75
2024/02/03 11:37:18;;;;;;;;;;;;;;;8.74;68.50;99037.81;5054441;28;19935;-80
2024/02/03 11:40:09;;;;;;;;;;;;;;;8.79;68.29;99031.53;5053621;28;19958;-83
2024/02/03 11:42:57;;;;;;;;;;;;;;;8.72;68.59;99031.00;5056344;28;19924;-78
2024/02/03 11:45:46;;;;;;;;;;;;;;;8.65;68.41;99031.28;5054755;28;20283;-80
2024/02/03 11:48:35;;;;;;;;;;;;;;;8.73;68.21;99038.88;5060581;28;19936;-78
2024/02/03 11:51:29;;;;;;;;;;;;;;;8.67;68.03;99031.81;5061946;28;20333;-84
2024/02/03 11:54:17;;;;;;;;;;;;;;;8.59;69.01;99032.38;5070138;28;20380;-81
2024/02/03 11:57:07;;;;;;;;;;;;;;;8.55;69.11;99034.00;5058228;28;19925;-84
2024/02/03 11:59:59;;;;;;;;;;;;;;;8.55;69.39;99028.59;5073146;28;19924;-87
2024/02/03 12:02:48;;;;;;;;;;;;;;;8.58;69.51;99028.88;5061407;28;19935;-85
2024/02/03 12:05:36;;;;;;;;;;;;;;;8.58;69.52;99028.06;5072051;28;19924;-85
2024/02/03 12:08:24;;;;;;;;;;;;;;;8.61;69.42;99019.38;5065007;28;20011;-90
2024/02/03 12:11:13;;;;;;;;;;;;;;;8.57;69.76;99021.78;5062775;28;19931;-91
2024/02/03 12:14:02;;;;;;;;;;;;;;;8.55;69.91;99018.56;5073889;28;19968;-89
2024/02/03 12:16:51;;;;;;;;;;;;;;;8.50;69.81;99015.03;5059535;28;19978;-90
2024/02/03 12:19:39;;;;;;;;;;;;;;;8.50;69.96;99012.31;5071448;28;19933;-91
2024/02/03 12:22:27;;;;;;;;;;;;;;;8.33;70.94;99010.66;5067152;28;19925;-92
2024/02/03 12:25:16;;;;;;;;;;;;;;;8.34;71.03;99008.75;5063600;28;19924;-89
2024/02/03 12:28:05;;;;;;;;;;;;;;;8.18;70.98;99001.72;5074491;28;19987;-93
2024/02/03 12:30:58;;;;;;;;;;;;;;;8.35;70.42;99008.50;5086961;28;19955;-90
2024/02/03 12:33:49;;;;;;;;;;;;;;;8.38;70.72;99016.13;5086063;28;19928;-90
2024/02/03 12:36:40;;;;;;;;;;;;;;;8.43;70.11;99003.66;5067228;28;19987;-89
2024/02/03 12:39:28;;;;;;;;;;;;;;;8.37;70.48;98998.25;5078667;28;19952;-92
2024/02/03 12:42:17;;;;;;;;;;;;;;;8.55;70.00;98998.78;5068620;28;19929;-86
2024/02/03 12:45:06;;;;;;;;;;;;;;;8.51;70.02;99000.41;5062708;28;19925;-87
2024/02/03 12:47:55;;;;;;;;;;;;;;;8.53;70.41;99001.78;5072448;28;20472;-86
2024/02/03 12:50:44;;;;;;;;;;;;;;;8.54;70.07;99000.69;5064858;28;19935;-87
2024/02/03 12:53:32;;;;;;;;;;;;;;;8.58;70.11;98993.66;5069726;28;19947;-87
2024/02/03 12:56:20;;;;;;;;;;;;;;;8.63;69.72;98985.53;5054689;28;19925;-85
2024/02/03 12:59:09;;;;;;;;;;;;;;;8.55;70.21;98987.94;5057832;28;19936;-84
2024/02/03 13:01:57;;;;;;;;;;;;;;;8.55;70.22;98985.25;5056915;28;19935;-81
2024/02/03 13:04:47;;;;;;;;;;;;;;;8.59;70.20;98991.75;5058502;28;19939;-84
2024/02/03 13:07:35;;;;;;;;;;;;;;;8.59;70.27;98975.50;5060839;28;20012;-76
2024/02/03 13:10:23;;;;;;;;;;;;;;;8.55;70.50;98971.69;5049759;28;19928;-79
2024/02/03 13:13:12;;;;;;;;;;;;;;;8.46;71.00;98976.03;5050758;28;19970;-78
2024/02/03 13:16:00;;;;;;;;;;;;;;;8.45;71.32;98969.00;5053658;28;19931;-76
2024/02/03 13:18:49;;;;;;;;;;;;;;;8.51;71.07;98984.97;5053629;28;19924;-79
2024/02/03 13:21:39;;;;;;;;;;;;;;;8.59;70.48;98978.22;5055573;28;20026;-79
2024/02/03 13:24:29;;;;;;;;;;;;;;;8.47;71.04;98975.78;5046012;28;20050;-75
2024/02/03 13:27:17;;;;;;;;;;;;;;;8.63;70.85;98969.28;5051653;28;19978;-79
2024/02/03 13:30:06;;;;;;;;;;;;;;;8.51;70.85;98967.91;5050699;28;19924;-73
2024/02/03 13:32:55;;;;;;;;;;;;;;;8.60;70.70;98956.25;5046850;28;19936;-76
2024/02/03 13:35:44;;;;;;;;;;;;;;;8.63;70.53;98957.63;5040762;28;20011;-79
2024/02/03 13:38:33;;;;;;;;;;;;;;;8.70;70.68;98950.00;5068794;28;19924;-81
2024/02/03 13:41:22;;;;;;;;;;;;;;;8.66;70.02;98954.34;5056705;28;19925;-82
2024/02/03 13:44:10;;;;;;;;;;;;;;;8.54;70.51;98949.22;5054486;28;20395;-77
2024/02/03 13:46:58;;;;;;;;;;;;;;;8.65;70.16;98952.72;5050743;28;20296;-76
2024/02/03 13:49:46;;;;;;;;;;;;;;;8.66;69.97;98949.75;5051505;28;20387;-76
2024/02/03 13:52:34;;;;;;;;;;;;;;;8.78;70.12;98945.94;5044260;28;19929;-77
2024/02/03 13:55:24;;;;;;;;;;;;;;;8.78;69.75;98944.03;5051436;28;19925;-78
2024/02/03 13:58:12;;;;;;;;;;;;;;;8.81;69.64;98943.50;5049409;28;20402;-77
2024/02/03 14:01:00;;;;;;;;;;;;;;;8.82;69.14;98942.41;5054681;28;19995;-81
2024/02/03 14:03:49;;;;;;;;;;;;;;;8.76;70.17;98942.69;5051178;28;19937;-80
2024/02/03 14:06:38;;;;;;;;;;;;;;;8.96;68.67;98941.84;5057812;28;20358;-84
2024/02/03 14:09:26;;;;;;;;;;;;;;;8.89;68.96;98925.84;5064162;28;19931;-82
2024/02/03 14:12:15;;;;;;;;;;;;;;;9.01;68.82;98933.69;5058019;28;19931;-83
2024/02/03 14:15:05;;;;;;;;;;;;;;;9.04;68.00;98928.50;5050640;28;20586;-85
2024/02/03 14:17:53;;;;;;;;;;;;;;;8.91;68.64;98934.53;5064694;28;20177;-84
2024/02/03 14:20:42;;;;;;;;;;;;;;;8.88;68.71;98941.28;5061621;28;19925;-89
2024/02/03 14:23:31;;;;;;;;;;;;;;;8.78;69.20;98941.31;5067524;28;19925;-81
2024/02/03 14:26:22;;;;;;;;;;;;;;;8.95;68.82;98935.63;5072389;28;19928;-79
2024/02/03 14:29:13;;;;;;;;;;;;;;;8.81;68.64;98940.78;5052898;28;19932;-79
2024/02/03 14:32:02;;;;;;;;;;;;;;;8.90;68.19;98935.63;5072455;28;19925;-77
2024/02/03 14:34:50;;;;;;;;;;;;;;;8.78;68.49;98933.19;5080564;28;19954;-80
2024/02/03 14:37:39;;;;;;;;;;;;;;;8.70;68.49;98930.25;5056932;28;19971;-80
2024/02/03 14:40:27;;;;;;;;;;;;;;;8.76;68.99;98929.94;5057252;28;19936;-76
2024/02/03 14:43:15;;;;;;;;;;;;;;;8.91;68.77;98929.91;5061438;28;20446;-80
2024/02/03 14:46:05;;;;;;;;;;;;;;;8.84;68.82;98929.41;5073110;28;20387;-77
2024/02/03 14:48:53;;;;;;;;;;;;;;;8.93;68.38;98927.72;5072329;28;19972;-79
2024/02/03 14:51:41;;;;;;;;;;;;;;;8.86;68.72;98926.41;5059627;28;20482;-79